sensor_id;sensor_type;location;lat;lon;timestamp;P1;durP1;ratioP1;P2;durP2;ratioP2
61085;SDS011;46967;48.876;2.136;2022-08-21T00:00:06;8.45;;;2.30;;
61085;SDS011;46967;48.876;2.136;2022-08-21T00:02:34;6.93;;;2.38;;
61085;SDS011;46967;48.876;2.136;2022-08-21T00:05:00;4.57;;;1.98;;
61085;SDS011;46967;48.876;2.136;2022-08-21T00:07:26;6.25;;;2.22;;
61085;SDS011;46967;48.876;2.136;2022-08-21T00:09:51;10.55;;;2.58;;
61085;SDS011;46967;48.876;2.136;2022-08-21T00:12:17;5.45;;;2.63;;
61085;SDS011;46967;48.876;2.136;2022-08-21T00:14:43;7.03;;;2.17;;
61085;SDS011;46967;48.876;2.136;2022-08-21T00:17:08;7.90;;;2.58;;
61085;SDS011;46967;48.876;2.136;2022-08-21T00:19:34;7.68;;;2.47;;
61085;SDS011;46967;48.876;2.136;2022-08-21T00:21:59;8.93;;;2.70;;
61085;SDS011;46967;48.876;2.136;2022-08-21T00:24:25;6.13;;;2.15;;
61085;SDS011;46967;48.876;2.136;2022-08-21T00:26:51;8.30;;;2.63;;
61085;SDS011;46967;48.876;2.136;2022-08-21T00:29:17;5.43;;;2.20;;
61085;SDS011;46967;48.876;2.136;2022-08-21T00:31:43;7.00;;;2.65;;
61085;SDS011;46967;48.876;2.136;2022-08-21T00:34:09;4.55;;;2.47;;
61085;SDS011;46967;48.876;2.136;2022-08-21T00:36:37;6.72;;;2.42;;
61085;SDS011;46967;48.876;2.136;2022-08-21T00:39:04;8.40;;;2.65;;
61085;SDS011;46967;48.876;2.136;2022-08-21T00:41:31;12.93;;;2.70;;
61085;SDS011;46967;48.876;2.136;2022-08-21T00:43:57;6.63;;;2.65;;
61085;SDS011;46967;48.876;2.136;2022-08-21T00:46:22;7.20;;;2.60;;
61085;SDS011;46967;48.876;2.136;2022-08-21T00:48:47;6.72;;;2.40;;
61085;SDS011;46967;48.876;2.136;2022-08-21T00:51:20;5.20;;;2.05;;
61085;SDS011;46967;48.876;2.136;2022-08-21T00:53:53;5.93;;;2.30;;
61085;SDS011;46967;48.876;2.136;2022-08-21T00:56:22;5.35;;;2.28;;
61085;SDS011;46967;48.876;2.136;2022-08-21T00:58:49;4.68;;;2.10;;
61085;SDS011;46967;48.876;2.136;2022-08-21T01:01:16;11.35;;;3.05;;
61085;SDS011;46967;48.876;2.136;2022-08-21T01:03:41;4.90;;;2.30;;
61085;SDS011;46967;48.876;2.136;2022-08-21T01:06:07;5.55;;;2.38;;
61085;SDS011;46967;48.876;2.136;2022-08-21T01:08:34;7.50;;;2.50;;
61085;SDS011;46967;48.876;2.136;2022-08-21T01:11:00;6.32;;;2.42;;
61085;SDS011;46967;48.876;2.136;2022-08-21T01:13:27;7.40;;;2.78;;
61085;SDS011;46967;48.876;2.136;2022-08-21T01:15:55;5.35;;;2.50;;
61085;SDS011;46967;48.876;2.136;2022-08-21T01:18:24;8.18;;;2.78;;
61085;SDS011;46967;48.876;2.136;2022-08-21T01:21:01;9.02;;;2.78;;
61085;SDS011;46967;48.876;2.136;2022-08-21T01:23:26;6.25;;;2.45;;
61085;SDS011;46967;48.876;2.136;2022-08-21T01:25:52;10.25;;;3.17;;
61085;SDS011;46967;48.876;2.136;2022-08-21T01:28:17;10.00;;;3.22;;
61085;SDS011;46967;48.876;2.136;2022-08-21T01:30:45;7.03;;;3.17;;
61085;SDS011;46967;48.876;2.136;2022-08-21T01:33:11;7.95;;;2.92;;
61085;SDS011;46967;48.876;2.136;2022-08-21T01:35:36;7.05;;;2.78;;
61085;SDS011;46967;48.876;2.136;2022-08-21T01:38:03;7.57;;;2.70;;
61085;SDS011;46967;48.876;2.136;2022-08-21T01:40:28;9.27;;;3.63;;
61085;SDS011;46967;48.876;2.136;2022-08-21T01:42:54;6.90;;;2.78;;
61085;SDS011;46967;48.876;2.136;2022-08-21T01:45:20;7.25;;;3.13;;
61085;SDS011;46967;48.876;2.136;2022-08-21T01:47:45;8.98;;;3.05;;
61085;SDS011;46967;48.876;2.136;2022-08-21T01:50:12;9.32;;;3.22;;
61085;SDS011;46967;48.876;2.136;2022-08-21T01:52:41;8.40;;;3.33;;
61085;SDS011;46967;48.876;2.136;2022-08-21T01:55:07;8.13;;;2.78;;
61085;SDS011;46967;48.876;2.136;2022-08-21T01:57:37;7.68;;;3.17;;
61085;SDS011;46967;48.876;2.136;2022-08-21T02:00:07;4.85;;;2.30;;
61085;SDS011;46967;48.876;2.136;2022-08-21T02:02:35;7.47;;;2.85;;
61085;SDS011;46967;48.876;2.136;2022-08-21T02:05:01;5.75;;;2.90;;
61085;SDS011;46967;48.876;2.136;2022-08-21T02:07:34;6.07;;;2.40;;
61085;SDS011;46967;48.876;2.136;2022-08-21T02:10:01;9.00;;;2.88;;
61085;SDS011;46967;48.876;2.136;2022-08-21T02:12:26;7.78;;;2.50;;
61085;SDS011;46967;48.876;2.136;2022-08-21T02:14:51;7.47;;;3.00;;
61085;SDS011;46967;48.876;2.136;2022-08-21T02:17:17;6.22;;;2.67;;
61085;SDS011;46967;48.876;2.136;2022-08-21T02:19:42;6.85;;;2.72;;
61085;SDS011;46967;48.876;2.136;2022-08-21T02:22:09;5.65;;;2.53;;
61085;SDS011;46967;48.876;2.136;2022-08-21T02:24:35;6.45;;;2.67;;
61085;SDS011;46967;48.876;2.136;2022-08-21T02:27:01;8.13;;;2.65;;
61085;SDS011;46967;48.876;2.136;2022-08-21T02:29:26;7.32;;;2.30;;
61085;SDS011;46967;48.876;2.136;2022-08-21T02:31:51;7.30;;;2.95;;
61085;SDS011;46967;48.876;2.136;2022-08-21T02:34:18;10.05;;;2.92;;
61085;SDS011;46967;48.876;2.136;2022-08-21T02:36:44;6.93;;;3.20;;
61085;SDS011;46967;48.876;2.136;2022-08-21T02:39:09;8.70;;;2.78;;
61085;SDS011;46967;48.876;2.136;2022-08-21T02:41:34;6.72;;;2.70;;
61085;SDS011;46967;48.876;2.136;2022-08-21T02:44:00;4.47;;;2.35;;
61085;SDS011;46967;48.876;2.136;2022-08-21T02:46:25;5.80;;;2.55;;
61085;SDS011;46967;48.876;2.136;2022-08-21T02:48:50;8.23;;;3.00;;
61085;SDS011;46967;48.876;2.136;2022-08-21T02:51:17;7.95;;;2.60;;
61085;SDS011;46967;48.876;2.136;2022-08-21T02:53:44;5.47;;;2.30;;
61085;SDS011;46967;48.876;2.136;2022-08-21T02:56:13;5.35;;;2.83;;
61085;SDS011;46967;48.876;2.136;2022-08-21T02:58:41;7.22;;;2.58;;
61085;SDS011;46967;48.876;2.136;2022-08-21T03:03:39;7.18;;;2.65;;
61085;SDS011;46967;48.876;2.136;2022-08-21T03:06:06;7.80;;;2.38;;
61085;SDS011;46967;48.876;2.136;2022-08-21T03:08:33;8.57;;;2.78;;
61085;SDS011;46967;48.876;2.136;2022-08-21T03:10:59;7.78;;;3.05;;
61085;SDS011;46967;48.876;2.136;2022-08-21T03:13:25;6.10;;;2.10;;
61085;SDS011;46967;48.876;2.136;2022-08-21T03:15:51;7.95;;;2.97;;
61085;SDS011;46967;48.876;2.136;2022-08-21T03:18:17;6.10;;;2.50;;
61085;SDS011;46967;48.876;2.136;2022-08-21T03:20:43;4.53;;;2.42;;
61085;SDS011;46967;48.876;2.136;2022-08-21T03:23:10;6.68;;;2.50;;
61085;SDS011;46967;48.876;2.136;2022-08-21T03:25:36;5.75;;;2.70;;
61085;SDS011;46967;48.876;2.136;2022-08-21T03:28:03;9.07;;;2.55;;
61085;SDS011;46967;48.876;2.136;2022-08-21T03:30:30;4.95;;;2.40;;
61085;SDS011;46967;48.876;2.136;2022-08-21T03:32:56;5.72;;;2.80;;
61085;SDS011;46967;48.876;2.136;2022-08-21T03:35:22;5.57;;;2.28;;
61085;SDS011;46967;48.876;2.136;2022-08-21T03:37:48;5.28;;;2.33;;
61085;SDS011;46967;48.876;2.136;2022-08-21T03:40:14;5.15;;;2.30;;
61085;SDS011;46967;48.876;2.136;2022-08-21T03:42:42;6.63;;;2.33;;
61085;SDS011;46967;48.876;2.136;2022-08-21T03:45:08;7.05;;;2.15;;
61085;SDS011;46967;48.876;2.136;2022-08-21T03:47:33;5.35;;;1.95;;
61085;SDS011;46967;48.876;2.136;2022-08-21T03:50:00;6.13;;;1.95;;
61085;SDS011;46967;48.876;2.136;2022-08-21T03:52:26;7.00;;;1.80;;
61085;SDS011;46967;48.876;2.136;2022-08-21T03:54:51;4.05;;;2.03;;
61085;SDS011;46967;48.876;2.136;2022-08-21T03:57:16;10.52;;;2.13;;
61085;SDS011;46967;48.876;2.136;2022-08-21T03:59:43;6.00;;;2.05;;
61085;SDS011;46967;48.876;2.136;2022-08-21T04:02:09;4.80;;;1.90;;
61085;SDS011;46967;48.876;2.136;2022-08-21T04:04:35;5.13;;;1.88;;
61085;SDS011;46967;48.876;2.136;2022-08-21T04:07:01;7.25;;;2.13;;
61085;SDS011;46967;48.876;2.136;2022-08-21T04:09:27;3.63;;;1.80;;
61085;SDS011;46967;48.876;2.136;2022-08-21T04:11:53;5.13;;;1.83;;
61085;SDS011;46967;48.876;2.136;2022-08-21T04:14:19;6.97;;;2.30;;
61085;SDS011;46967;48.876;2.136;2022-08-21T04:16:45;8.32;;;2.03;;
61085;SDS011;46967;48.876;2.136;2022-08-21T04:19:11;5.53;;;2.33;;
61085;SDS011;46967;48.876;2.136;2022-08-21T04:21:38;4.90;;;2.25;;
61085;SDS011;46967;48.876;2.136;2022-08-21T04:24:04;7.85;;;2.15;;
61085;SDS011;46967;48.876;2.136;2022-08-21T04:26:30;5.95;;;2.20;;
61085;SDS011;46967;48.876;2.136;2022-08-21T04:28:56;5.60;;;1.88;;
61085;SDS011;46967;48.876;2.136;2022-08-21T04:31:23;9.98;;;2.30;;
61085;SDS011;46967;48.876;2.136;2022-08-21T04:33:49;4.50;;;1.85;;
61085;SDS011;46967;48.876;2.136;2022-08-21T04:36:15;8.52;;;2.58;;
61085;SDS011;46967;48.876;2.136;2022-08-21T04:38:42;6.60;;;2.28;;
61085;SDS011;46967;48.876;2.136;2022-08-21T04:41:07;5.05;;;2.13;;
61085;SDS011;46967;48.876;2.136;2022-08-21T04:43:32;6.68;;;2.40;;
61085;SDS011;46967;48.876;2.136;2022-08-21T04:45:58;4.95;;;1.92;;
61085;SDS011;46967;48.876;2.136;2022-08-21T04:48:25;4.45;;;1.83;;
61085;SDS011;46967;48.876;2.136;2022-08-21T04:51:01;6.50;;;2.28;;
61085;SDS011;46967;48.876;2.136;2022-08-21T04:56:23;6.15;;;2.03;;
61085;SDS011;46967;48.876;2.136;2022-08-21T04:58:55;3.90;;;1.95;;
61085;SDS011;46967;48.876;2.136;2022-08-21T05:01:23;6.50;;;2.35;;
61085;SDS011;46967;48.876;2.136;2022-08-21T05:03:52;4.97;;;2.22;;
61085;SDS011;46967;48.876;2.136;2022-08-21T05:06:23;6.40;;;2.10;;
61085;SDS011;46967;48.876;2.136;2022-08-21T05:08:50;5.55;;;2.63;;
61085;SDS011;46967;48.876;2.136;2022-08-21T05:11:17;8.60;;;2.30;;
61085;SDS011;46967;48.876;2.136;2022-08-21T05:13:43;5.30;;;2.40;;
61085;SDS011;46967;48.876;2.136;2022-08-21T05:16:09;4.95;;;2.33;;
61085;SDS011;46967;48.876;2.136;2022-08-21T05:18:34;8.48;;;2.50;;
61085;SDS011;46967;48.876;2.136;2022-08-21T05:21:00;4.65;;;1.83;;
61085;SDS011;46967;48.876;2.136;2022-08-21T05:23:25;4.78;;;2.10;;
61085;SDS011;46967;48.876;2.136;2022-08-21T05:25:51;5.78;;;2.30;;
61085;SDS011;46967;48.876;2.136;2022-08-21T05:28:17;7.80;;;2.20;;
61085;SDS011;46967;48.876;2.136;2022-08-21T05:30:43;6.75;;;2.33;;
61085;SDS011;46967;48.876;2.136;2022-08-21T05:33:09;5.93;;;1.90;;
61085;SDS011;46967;48.876;2.136;2022-08-21T05:35:35;3.67;;;1.90;;
61085;SDS011;46967;48.876;2.136;2022-08-21T05:38:01;5.32;;;1.95;;
61085;SDS011;46967;48.876;2.136;2022-08-21T05:40:27;6.47;;;2.20;;
61085;SDS011;46967;48.876;2.136;2022-08-21T05:42:53;5.25;;;2.20;;
61085;SDS011;46967;48.876;2.136;2022-08-21T05:45:20;4.53;;;2.08;;
61085;SDS011;46967;48.876;2.136;2022-08-21T05:47:46;5.00;;;2.10;;
61085;SDS011;46967;48.876;2.136;2022-08-21T05:50:12;4.60;;;2.00;;
61085;SDS011;46967;48.876;2.136;2022-08-21T05:52:37;6.15;;;2.28;;
61085;SDS011;46967;48.876;2.136;2022-08-21T05:55:03;8.40;;;2.45;;
61085;SDS011;46967;48.876;2.136;2022-08-21T05:57:29;5.85;;;2.03;;
61085;SDS011;46967;48.876;2.136;2022-08-21T05:59:54;4.60;;;2.25;;
61085;SDS011;46967;48.876;2.136;2022-08-21T06:02:20;3.28;;;1.60;;
61085;SDS011;46967;48.876;2.136;2022-08-21T06:04:46;6.50;;;2.10;;
61085;SDS011;46967;48.876;2.136;2022-08-21T06:07:12;5.55;;;2.00;;
61085;SDS011;46967;48.876;2.136;2022-08-21T06:09:39;4.65;;;2.00;;
61085;SDS011;46967;48.876;2.136;2022-08-21T06:12:06;6.05;;;2.00;;
61085;SDS011;46967;48.876;2.136;2022-08-21T06:14:33;5.32;;;2.60;;
61085;SDS011;46967;48.876;2.136;2022-08-21T06:17:05;5.97;;;2.67;;
61085;SDS011;46967;48.876;2.136;2022-08-21T06:19:32;7.47;;;2.83;;
61085;SDS011;46967;48.876;2.136;2022-08-21T06:21:58;6.72;;;2.38;;
61085;SDS011;46967;48.876;2.136;2022-08-21T06:24:24;6.57;;;2.00;;
61085;SDS011;46967;48.876;2.136;2022-08-21T06:26:50;4.95;;;2.10;;
61085;SDS011;46967;48.876;2.136;2022-08-21T06:29:15;7.00;;;2.25;;
61085;SDS011;46967;48.876;2.136;2022-08-21T06:31:42;9.88;;;2.20;;
61085;SDS011;46967;48.876;2.136;2022-08-21T06:34:07;14.50;;;5.07;;
61085;SDS011;46967;48.876;2.136;2022-08-21T06:36:33;9.30;;;2.30;;
61085;SDS011;46967;48.876;2.136;2022-08-21T06:38:58;5.70;;;2.28;;
61085;SDS011;46967;48.876;2.136;2022-08-21T06:41:24;6.15;;;2.20;;
61085;SDS011;46967;48.876;2.136;2022-08-21T06:43:49;7.90;;;2.40;;
61085;SDS011;46967;48.876;2.136;2022-08-21T06:46:15;8.07;;;1.98;;
61085;SDS011;46967;48.876;2.136;2022-08-21T06:48:40;5.68;;;1.88;;
61085;SDS011;46967;48.876;2.136;2022-08-21T06:51:06;8.25;;;2.38;;
61085;SDS011;46967;48.876;2.136;2022-08-21T06:53:31;7.75;;;2.25;;
61085;SDS011;46967;48.876;2.136;2022-08-21T06:55:57;5.85;;;1.98;;
61085;SDS011;46967;48.876;2.136;2022-08-21T06:58:23;7.55;;;2.30;;
61085;SDS011;46967;48.876;2.136;2022-08-21T07:00:48;8.23;;;2.33;;
61085;SDS011;46967;48.876;2.136;2022-08-21T07:03:17;10.00;;;2.53;;
61085;SDS011;46967;48.876;2.136;2022-08-21T07:05:42;10.18;;;2.78;;
61085;SDS011;46967;48.876;2.136;2022-08-21T07:08:08;6.40;;;2.33;;
61085;SDS011;46967;48.876;2.136;2022-08-21T07:10:33;9.10;;;2.88;;
61085;SDS011;46967;48.876;2.136;2022-08-21T07:12:58;8.57;;;2.90;;
61085;SDS011;46967;48.876;2.136;2022-08-21T07:15:24;7.95;;;2.60;;
61085;SDS011;46967;48.876;2.136;2022-08-21T07:17:49;5.07;;;2.30;;
61085;SDS011;46967;48.876;2.136;2022-08-21T07:20:14;9.60;;;2.30;;
61085;SDS011;46967;48.876;2.136;2022-08-21T07:22:40;9.77;;;2.60;;
61085;SDS011;46967;48.876;2.136;2022-08-21T07:25:06;7.25;;;2.33;;
61085;SDS011;46967;48.876;2.136;2022-08-21T07:27:32;6.97;;;2.60;;
61085;SDS011;46967;48.876;2.136;2022-08-21T07:29:57;13.18;;;3.25;;
61085;SDS011;46967;48.876;2.136;2022-08-21T07:32:23;7.45;;;2.47;;
61085;SDS011;46967;48.876;2.136;2022-08-21T07:34:48;6.10;;;2.00;;
61085;SDS011;46967;48.876;2.136;2022-08-21T07:37:14;6.20;;;2.05;;
61085;SDS011;46967;48.876;2.136;2022-08-21T07:39:39;6.10;;;2.15;;
61085;SDS011;46967;48.876;2.136;2022-08-21T07:42:05;9.45;;;2.20;;
61085;SDS011;46967;48.876;2.136;2022-08-21T07:44:30;7.22;;;2.47;;
61085;SDS011;46967;48.876;2.136;2022-08-21T07:46:56;8.20;;;2.22;;
61085;SDS011;46967;48.876;2.136;2022-08-21T07:49:21;10.52;;;2.25;;
61085;SDS011;46967;48.876;2.136;2022-08-21T07:51:46;8.15;;;2.30;;
61085;SDS011;46967;48.876;2.136;2022-08-21T07:54:12;5.38;;;2.03;;
61085;SDS011;46967;48.876;2.136;2022-08-21T07:56:37;11.23;;;2.60;;
61085;SDS011;46967;48.876;2.136;2022-08-21T07:59:02;7.93;;;2.00;;
61085;SDS011;46967;48.876;2.136;2022-08-21T08:01:28;8.55;;;2.67;;
61085;SDS011;46967;48.876;2.136;2022-08-21T08:03:53;7.70;;;2.65;;
61085;SDS011;46967;48.876;2.136;2022-08-21T08:06:19;5.53;;;2.13;;
61085;SDS011;46967;48.876;2.136;2022-08-21T08:08:45;14.45;;;2.33;;
61085;SDS011;46967;48.876;2.136;2022-08-21T08:11:11;6.82;;;2.00;;
61085;SDS011;46967;48.876;2.136;2022-08-21T08:13:44;10.13;;;2.10;;
61085;SDS011;46967;48.876;2.136;2022-08-21T08:16:10;8.00;;;2.28;;
61085;SDS011;46967;48.876;2.136;2022-08-21T08:18:36;5.78;;;2.10;;
61085;SDS011;46967;48.876;2.136;2022-08-21T08:21:02;9.93;;;2.35;;
61085;SDS011;46967;48.876;2.136;2022-08-21T08:23:27;8.07;;;1.88;;
61085;SDS011;46967;48.876;2.136;2022-08-21T08:25:55;6.95;;;2.20;;
61085;SDS011;46967;48.876;2.136;2022-08-21T08:28:20;9.98;;;1.88;;
61085;SDS011;46967;48.876;2.136;2022-08-21T08:30:47;6.40;;;2.08;;
61085;SDS011;46967;48.876;2.136;2022-08-21T08:33:12;7.32;;;1.75;;
61085;SDS011;46967;48.876;2.136;2022-08-21T08:35:40;6.55;;;1.63;;
61085;SDS011;46967;48.876;2.136;2022-08-21T08:38:07;5.80;;;2.17;;
61085;SDS011;46967;48.876;2.136;2022-08-21T08:40:36;9.50;;;2.30;;
61085;SDS011;46967;48.876;2.136;2022-08-21T08:43:11;7.88;;;2.05;;
61085;SDS011;46967;48.876;2.136;2022-08-21T08:45:38;7.05;;;2.08;;
61085;SDS011;46967;48.876;2.136;2022-08-21T08:48:08;8.52;;;1.75;;
61085;SDS011;46967;48.876;2.136;2022-08-21T08:50:40;7.20;;;2.08;;
61085;SDS011;46967;48.876;2.136;2022-08-21T08:53:07;8.57;;;1.83;;
61085;SDS011;46967;48.876;2.136;2022-08-21T08:55:40;8.20;;;2.20;;
61085;SDS011;46967;48.876;2.136;2022-08-21T08:58:07;8.82;;;2.10;;
61085;SDS011;46967;48.876;2.136;2022-08-21T09:00:37;7.10;;;1.95;;
61085;SDS011;46967;48.876;2.136;2022-08-21T09:03:03;10.13;;;2.47;;
61085;SDS011;46967;48.876;2.136;2022-08-21T09:05:52;8.93;;;2.00;;
61085;SDS011;46967;48.876;2.136;2022-08-21T09:08:23;5.40;;;1.65;;
61085;SDS011;46967;48.876;2.136;2022-08-21T09:17:25;7.10;;;1.90;;
61085;SDS011;46967;48.876;2.136;2022-08-21T09:23:16;6.25;;;2.00;;
61085;SDS011;46967;48.876;2.136;2022-08-21T09:26:19;6.57;;;1.90;;
61085;SDS011;46967;48.876;2.136;2022-08-21T09:28:51;10.38;;;2.42;;
61085;SDS011;46967;48.876;2.136;2022-08-21T09:33:50;9.57;;;1.98;;
61085;SDS011;46967;48.876;2.136;2022-08-21T09:36:25;9.07;;;2.67;;
61085;SDS011;46967;48.876;2.136;2022-08-21T09:38:59;9.80;;;2.25;;
61085;SDS011;46967;48.876;2.136;2022-08-21T09:41:28;6.35;;;1.90;;
61085;SDS011;46967;48.876;2.136;2022-08-21T09:43:56;7.40;;;2.50;;
61085;SDS011;46967;48.876;2.136;2022-08-21T09:46:23;7.47;;;2.05;;
61085;SDS011;46967;48.876;2.136;2022-08-21T09:48:51;7.53;;;1.80;;
61085;SDS011;46967;48.876;2.136;2022-08-21T09:51:30;5.45;;;1.77;;
61085;SDS011;46967;48.876;2.136;2022-08-21T09:56:36;8.60;;;1.95;;
61085;SDS011;46967;48.876;2.136;2022-08-21T09:59:26;6.50;;;1.80;;
61085;SDS011;46967;48.876;2.136;2022-08-21T10:01:57;7.05;;;1.98;;
61085;SDS011;46967;48.876;2.136;2022-08-21T10:07:06;8.10;;;1.70;;
61085;SDS011;46967;48.876;2.136;2022-08-21T10:09:39;4.93;;;1.55;;
61085;SDS011;46967;48.876;2.136;2022-08-21T10:17:36;5.82;;;1.60;;
61085;SDS011;46967;48.876;2.136;2022-08-21T10:20:13;6.20;;;1.63;;
61085;SDS011;46967;48.876;2.136;2022-08-21T10:23:00;12.85;;;2.08;;
61085;SDS011;46967;48.876;2.136;2022-08-21T10:25:37;6.53;;;1.52;;
61085;SDS011;46967;48.876;2.136;2022-08-21T10:28:17;6.18;;;1.70;;
61085;SDS011;46967;48.876;2.136;2022-08-21T10:36:20;7.63;;;2.13;;
61085;SDS011;46967;48.876;2.136;2022-08-21T10:38:55;6.40;;;1.60;;
61085;SDS011;46967;48.876;2.136;2022-08-21T10:54:52;8.85;;;2.00;;
61085;SDS011;46967;48.876;2.136;2022-08-21T10:59:58;8.27;;;2.60;;
61085;SDS011;46967;48.876;2.136;2022-08-21T11:02:35;6.85;;;2.00;;
61085;SDS011;46967;48.876;2.136;2022-08-21T11:05:08;5.22;;;1.80;;
61085;SDS011;46967;48.876;2.136;2022-08-21T11:07:39;4.10;;;1.60;;
61085;SDS011;46967;48.876;2.136;2022-08-21T11:17:52;7.97;;;2.88;;
61085;SDS011;46967;48.876;2.136;2022-08-21T11:20:28;4.07;;;1.52;;
61085;SDS011;46967;48.876;2.136;2022-08-21T11:23:03;5.28;;;1.70;;
61085;SDS011;46967;48.876;2.136;2022-08-21T11:25:37;5.30;;;1.63;;
61085;SDS011;46967;48.876;2.136;2022-08-21T11:28:08;8.13;;;2.05;;
61085;SDS011;46967;48.876;2.136;2022-08-21T11:33:22;4.82;;;1.55;;
61085;SDS011;46967;48.876;2.136;2022-08-21T11:35:53;6.72;;;2.03;;
61085;SDS011;46967;48.876;2.136;2022-08-21T11:38:35;8.38;;;1.73;;
61085;SDS011;46967;48.876;2.136;2022-08-21T11:46:57;6.32;;;1.55;;
61085;SDS011;46967;48.876;2.136;2022-08-21T11:49:43;4.68;;;1.30;;
61085;SDS011;46967;48.876;2.136;2022-08-21T11:52:20;4.45;;;1.48;;
61085;SDS011;46967;48.876;2.136;2022-08-21T11:55:03;3.63;;;1.02;;
61085;SDS011;46967;48.876;2.136;2022-08-21T11:57:39;7.03;;;1.57;;
61085;SDS011;46967;48.876;2.136;2022-08-21T12:00:22;3.08;;;1.00;;
61085;SDS011;46967;48.876;2.136;2022-08-21T12:02:53;6.22;;;1.05;;
61085;SDS011;46967;48.876;2.136;2022-08-21T12:05:31;3.25;;;0.88;;
61085;SDS011;46967;48.876;2.136;2022-08-21T12:16:30;3.28;;;0.85;;
61085;SDS011;46967;48.876;2.136;2022-08-21T12:19:07;3.97;;;0.90;;
61085;SDS011;46967;48.876;2.136;2022-08-21T12:22:07;2.20;;;0.75;;
61085;SDS011;46967;48.876;2.136;2022-08-21T12:24:40;9.63;;;1.00;;
61085;SDS011;46967;48.876;2.136;2022-08-21T12:30:01;3.28;;;0.90;;
61085;SDS011;46967;48.876;2.136;2022-08-21T12:35:08;3.83;;;0.68;;
61085;SDS011;46967;48.876;2.136;2022-08-21T12:37:50;7.03;;;1.10;;
61085;SDS011;46967;48.876;2.136;2022-08-21T12:42:57;4.13;;;0.85;;
61085;SDS011;46967;48.876;2.136;2022-08-21T12:45:33;1.45;;;0.70;;
61085;SDS011;46967;48.876;2.136;2022-08-21T12:48:18;1.23;;;0.70;;
61085;SDS011;46967;48.876;2.136;2022-08-21T12:50:58;3.10;;;0.70;;
61085;SDS011;46967;48.876;2.136;2022-08-21T12:53:47;3.20;;;0.80;;
61085;SDS011;46967;48.876;2.136;2022-08-21T12:56:15;3.47;;;0.90;;
61085;SDS011;46967;48.876;2.136;2022-08-21T12:58:51;3.78;;;0.50;;
61085;SDS011;46967;48.876;2.136;2022-08-21T13:01:31;1.33;;;0.68;;
61085;SDS011;46967;48.876;2.136;2022-08-21T13:06:27;1.30;;;0.60;;
61085;SDS011;46967;48.876;2.136;2022-08-21T13:08:57;1.83;;;0.43;;
61085;SDS011;46967;48.876;2.136;2022-08-21T13:11:29;1.30;;;0.65;;
61085;SDS011;46967;48.876;2.136;2022-08-21T13:13:54;1.48;;;0.50;;
61085;SDS011;46967;48.876;2.136;2022-08-21T13:16:25;2.25;;;0.52;;
61085;SDS011;46967;48.876;2.136;2022-08-21T13:19:03;1.88;;;0.50;;
61085;SDS011;46967;48.876;2.136;2022-08-21T13:21:39;1.38;;;0.57;;
61085;SDS011;46967;48.876;2.136;2022-08-21T13:24:13;4.03;;;0.50;;
61085;SDS011;46967;48.876;2.136;2022-08-21T13:26:39;1.38;;;0.43;;
61085;SDS011;46967;48.876;2.136;2022-08-21T13:29:06;2.53;;;0.70;;
61085;SDS011;46967;48.876;2.136;2022-08-21T13:31:36;2.92;;;0.60;;
61085;SDS011;46967;48.876;2.136;2022-08-21T13:34:03;2.55;;;0.50;;
61085;SDS011;46967;48.876;2.136;2022-08-21T13:36:31;1.98;;;0.60;;
61085;SDS011;46967;48.876;2.136;2022-08-21T13:38:59;1.48;;;0.40;;
61085;SDS011;46967;48.876;2.136;2022-08-21T13:41:27;1.02;;;0.47;;
61085;SDS011;46967;48.876;2.136;2022-08-21T13:44:02;2.72;;;0.60;;
61085;SDS011;46967;48.876;2.136;2022-08-21T13:46:30;1.10;;;0.50;;
61085;SDS011;46967;48.876;2.136;2022-08-21T13:48:59;1.65;;;0.60;;
61085;SDS011;46967;48.876;2.136;2022-08-21T13:51:25;1.77;;;0.50;;
61085;SDS011;46967;48.876;2.136;2022-08-21T13:53:51;2.30;;;0.60;;
61085;SDS011;46967;48.876;2.136;2022-08-21T13:58:51;1.15;;;0.45;;
61085;SDS011;46967;48.876;2.136;2022-08-21T14:01:31;2.78;;;0.50;;
61085;SDS011;46967;48.876;2.136;2022-08-21T14:04:20;1.58;;;0.30;;
61085;SDS011;46967;48.876;2.136;2022-08-21T14:06:49;1.95;;;0.50;;
61085;SDS011;46967;48.876;2.136;2022-08-21T14:09:32;3.78;;;0.70;;
61085;SDS011;46967;48.876;2.136;2022-08-21T14:12:02;1.95;;;0.50;;
61085;SDS011;46967;48.876;2.136;2022-08-21T14:14:38;3.05;;;0.60;;
61085;SDS011;46967;48.876;2.136;2022-08-21T14:17:07;4.15;;;0.57;;
61085;SDS011;46967;48.876;2.136;2022-08-21T14:24:58;2.72;;;0.57;;
61085;SDS011;46967;48.876;2.136;2022-08-21T14:27:30;2.70;;;0.60;;
61085;SDS011;46967;48.876;2.136;2022-08-21T14:30:00;1.08;;;0.40;;
61085;SDS011;46967;48.876;2.136;2022-08-21T14:32:30;2.08;;;0.52;;
61085;SDS011;46967;48.876;2.136;2022-08-21T14:35:03;0.73;;;0.40;;
61085;SDS011;46967;48.876;2.136;2022-08-21T14:37:28;1.75;;;0.35;;
61085;SDS011;46967;48.876;2.136;2022-08-21T14:39:54;1.88;;;0.50;;
61085;SDS011;46967;48.876;2.136;2022-08-21T14:42:19;3.17;;;0.77;;
61085;SDS011;46967;48.876;2.136;2022-08-21T14:44:45;2.30;;;0.52;;
61085;SDS011;46967;48.876;2.136;2022-08-21T14:47:10;1.52;;;0.35;;
61085;SDS011;46967;48.876;2.136;2022-08-21T14:49:36;0.98;;;0.60;;
61085;SDS011;46967;48.876;2.136;2022-08-21T14:52:01;2.10;;;0.40;;
61085;SDS011;46967;48.876;2.136;2022-08-21T14:54:28;2.08;;;0.50;;
61085;SDS011;46967;48.876;2.136;2022-08-21T14:56:54;3.47;;;0.35;;
61085;SDS011;46967;48.876;2.136;2022-08-21T14:59:20;2.70;;;0.52;;
61085;SDS011;46967;48.876;2.136;2022-08-21T15:01:46;4.25;;;0.50;;
61085;SDS011;46967;48.876;2.136;2022-08-21T15:04:12;1.30;;;0.30;;
61085;SDS011;46967;48.876;2.136;2022-08-21T15:06:37;1.88;;;0.55;;
61085;SDS011;46967;48.876;2.136;2022-08-21T15:09:03;3.80;;;0.70;;
61085;SDS011;46967;48.876;2.136;2022-08-21T15:11:29;1.42;;;0.60;;
61085;SDS011;46967;48.876;2.136;2022-08-21T15:13:57;3.58;;;0.60;;
61085;SDS011;46967;48.876;2.136;2022-08-21T15:16:27;1.52;;;0.40;;
61085;SDS011;46967;48.876;2.136;2022-08-21T15:18:55;1.63;;;0.47;;
61085;SDS011;46967;48.876;2.136;2022-08-21T15:21:20;0.88;;;0.30;;
61085;SDS011;46967;48.876;2.136;2022-08-21T15:23:46;2.25;;;0.60;;
61085;SDS011;46967;48.876;2.136;2022-08-21T15:26:11;4.70;;;0.70;;
61085;SDS011;46967;48.876;2.136;2022-08-21T15:28:36;1.65;;;0.50;;
61085;SDS011;46967;48.876;2.136;2022-08-21T15:31:03;2.38;;;0.60;;
61085;SDS011;46967;48.876;2.136;2022-08-21T15:33:29;1.10;;;0.30;;
61085;SDS011;46967;48.876;2.136;2022-08-21T15:35:55;1.13;;;0.43;;
61085;SDS011;46967;48.876;2.136;2022-08-21T15:38:20;4.32;;;0.32;;
61085;SDS011;46967;48.876;2.136;2022-08-21T15:40:46;1.50;;;0.60;;
61085;SDS011;46967;48.876;2.136;2022-08-21T15:43:25;4.53;;;0.60;;
61085;SDS011;46967;48.876;2.136;2022-08-21T15:45:53;3.70;;;0.90;;
61085;SDS011;46967;48.876;2.136;2022-08-21T15:48:19;5.18;;;0.70;;
61085;SDS011;46967;48.876;2.136;2022-08-21T15:50:44;2.22;;;0.68;;
61085;SDS011;46967;48.876;2.136;2022-08-21T15:53:10;1.83;;;0.70;;
61085;SDS011;46967;48.876;2.136;2022-08-21T15:55:35;3.15;;;0.90;;
61085;SDS011;46967;48.876;2.136;2022-08-21T15:58:00;2.22;;;0.70;;
61085;SDS011;46967;48.876;2.136;2022-08-21T16:00:28;1.88;;;0.60;;
61085;SDS011;46967;48.876;2.136;2022-08-21T16:02:57;3.80;;;0.93;;
61085;SDS011;46967;48.876;2.136;2022-08-21T16:05:24;4.65;;;0.75;;
61085;SDS011;46967;48.876;2.136;2022-08-21T16:07:50;2.67;;;0.82;;
61085;SDS011;46967;48.876;2.136;2022-08-21T16:10:17;4.63;;;0.70;;
61085;SDS011;46967;48.876;2.136;2022-08-21T16:12:49;3.95;;;0.75;;
61085;SDS011;46967;48.876;2.136;2022-08-21T16:15:19;3.72;;;0.85;;
61085;SDS011;46967;48.876;2.136;2022-08-21T16:17:45;3.35;;;0.80;;
61085;SDS011;46967;48.876;2.136;2022-08-21T16:20:15;5.22;;;1.42;;
61085;SDS011;46967;48.876;2.136;2022-08-21T16:22:46;5.20;;;1.13;;
61085;SDS011;46967;48.876;2.136;2022-08-21T16:25:12;4.03;;;1.00;;
61085;SDS011;46967;48.876;2.136;2022-08-21T16:27:39;4.20;;;1.10;;